Hauptseite
METAR-TAF:

METAR-TAF

Flughäfen :

Heeresflugplatz Celle

Celle, Deutschland

Breite: 52-36N, Länge: 010-01E, Höhe: 39 m

Beobachtung

Neuester Wetterbericht von vor 35 Minuten, um 00:20 UTC
Wind 2 kt aus West/Südwest
Temperatur 3°C
Luftfeuchtigkeit 100%
Luftdruck 1036 hPa
Sichtweite: 3300 m
Geschlossene Wolkendecke in der Höhe von 900 ft
feuchter Dunst

METAR: ETHC 010020Z 24002KT 3300 BR OVC009 03/03 Q1036 YLO

Zeit: 01:55 (00:55 UTC)


TAF: fehlend

Wetterbeobachtungen und Prognosen von mehr als 4000 Flughäfen (METAR und TAF Bericht).

Die verfügbaren Stationen werden durch gelbe und rote Markierungen auf der Karte dargestellt.

Führen Sie die Maus auf sie, um den Namen der Station zu sehen.

Darauf klicken, um die Beobachtung von Wetterbeobachtungen und Prognosen zu sehen.

Um die Karte zu ändern : klicken Sie auf den grünen Tasten mit einem schwarzen Kreuz Zum Vergrößern, auf den grünen Button mit einem Gedankenstrich zu verkleinern, oder auf die grünen Pfeile für benachbarte Karten.


METAR-TAF: